Terminal Aerodrome Forecast
Issued by NWS Memphis, TN

Home | Current Version | Previous Version | Text Only | Print | Product List | Glossary On
Versions: 1 2 3 4 5 6 7 8 9 10 11 12 13 14 15
000
FTUS44 KMEG 011100
TAFMKL
TAF
KMKL 011130Z 0112/0212 05004KT P6SM VCSH SCT060 BKN100
     FM011800 06004KT P6SM FEW060 BKN120
     FM020200 00000KT P6SM FEW100 BKN150=

USA.gov is the U.S. government's official web portal to all federal, state and local government web resources and services.